Glenville, Minnesota
Current Conditions -  °F | °C
As of 10:11 AM on Monday 22 Dec 2014 (Local Time) from KAEL Reporting Station
Light Rain Light Rain  
Wind Chill: 28°   Ceiling: 400
Heat Index: 36°   Visibility: 1.5mi
Dew Point: 36°   Wind: 12mph
Humidity: 100%   Direction: 140°SE
Pressure: 29.62"   Gusts: 18mph
Location:  43.57°N, 93.28°W
Report Text: KAEL 221611Z AUTO 14010G16KT 1 1/2SM -RA OVC004 02/02 A2962 RMK AO2
Loading
Personal Weather Stations






























Interactive Weather Map New forecast layout! Learn more

10-Day Weather Forecast

Advertisements
Track Severe Weather on mobile